Time;durP1;ratioP1;P1;durP2;ratioP2;P2;SDS_P1;SDS_P2;PMS_P1;PMS_P2;Temp;Humidity;BMP_temperature;BMP_pressure;BME280_temperature;BME280_humidity;BME280_pressure;Samples;Min_cycle;Max_cycle;Signal;HPM_P1;HPM_P2
2023/01/15 00:00:01;;;;;;;6.93;1.93;;;;;;;7.21;100.00;99868.56;5076527;28;20024;-38
2023/01/15 00:02:26;;;;;;;7.15;1.80;;;;;;;7.13;100.00;99862.72;5076146;28;20469;-38
2023/01/15 00:04:52;;;;;;;6.53;1.50;;;;;;;7.20;100.00;99876.88;5076745;28;20069;-38
2023/01/15 00:07:17;;;;;;;7.03;1.53;;;;;;;7.20;100.00;99875.00;5076138;28;20029;-38
2023/01/15 00:09:42;;;;;;;8.93;1.93;;;;;;;7.18;100.00;99873.59;5076629;28;20025;-38
2023/01/15 00:12:08;;;;;;;8.87;1.47;;;;;;;7.18;99.47;99887.88;5076292;28;20111;-38
2023/01/15 00:14:33;;;;;;;8.70;1.83;;;;;;;7.19;100.00;99883.31;5076209;28;20035;-38
2023/01/15 00:16:58;;;;;;;7.90;1.70;;;;;;;7.17;99.49;99880.00;5076224;28;20028;-38
2023/01/15 00:19:24;;;;;;;11.00;2.47;;;;;;;7.14;99.87;99883.19;5076200;28;20522;-38
2023/01/15 00:21:49;;;;;;;7.17;1.53;;;;;;;7.12;100.00;99886.06;5075572;28;20095;-38
2023/01/15 00:29:42;;;;;;;4.75;1.55;;;;;;;7.06;99.12;99868.19;5075765;28;20043;-38
2023/01/15 00:32:08;;;;;;;6.43;1.70;;;;;;;7.05;99.33;99884.56;5075700;28;20025;-38
2023/01/15 00:34:33;;;;;;;6.88;1.85;;;;;;;7.05;98.70;99871.94;5076173;28;20119;-38
2023/01/15 00:36:59;;;;;;;7.57;1.77;;;;;;;7.02;99.25;99871.56;5075540;28;20016;-38
2023/01/15 00:39:25;;;;;;;5.10;1.30;;;;;;;7.04;99.84;99874.88;5076372;28;20024;-38
2023/01/15 00:41:50;;;;;;;;;;;;;;;7.04;100.00;99878.38;5075045;28;20274;-38
2023/01/15 00:44:16;;;;;;;7.63;1.77;;;;;;;6.96;100.00;99874.13;5074398;28;19909;-38
2023/01/15 00:46:41;;;;;;;7.05;2.17;;;;;;;6.95;100.00;99880.56;5075370;28;20275;-38
2023/01/15 00:49:07;;;;;;;4.57;1.53;;;;;;;6.90;100.00;99891.19;5075130;28;20063;-38
2023/01/15 00:51:33;;;;;;;5.65;2.25;;;;;;;6.91;100.00;99892.00;5075005;28;20029;-38
2023/01/15 00:53:59;;;;;;;6.10;1.80;;;;;;;6.88;100.00;99890.63;5074919;28;20044;-38
2023/01/15 00:56:24;;;;;;;10.20;2.47;;;;;;;6.81;100.00;99878.31;5075800;28;20123;-37
2023/01/15 00:58:49;;;;;;;8.73;2.43;;;;;;;6.81;100.00;99889.88;5075456;28;20056;-38
2023/01/15 01:01:15;;;;;;;5.53;1.33;;;;;;;6.88;100.00;99901.38;5075878;28;20460;-38
2023/01/15 01:03:40;;;;;;;4.25;1.58;;;;;;;6.85;100.00;99899.13;5075070;28;20108;-38
2023/01/15 01:06:06;;;;;;;6.87;1.60;;;;;;;6.76;100.00;99887.06;5075243;28;20029;-38
2023/01/15 01:08:32;;;;;;;8.52;2.08;;;;;;;6.82;100.00;99894.19;5075299;28;20048;-38
2023/01/15 01:11:04;;;;;;;7.87;2.00;;;;;;;6.76;100.00;99884.38;5074596;28;20115;-38
2023/01/15 01:13:29;;;;;;;7.78;1.88;;;;;;;6.80;100.00;99890.94;5075587;28;20024;-38
2023/01/15 01:15:55;;;;;;;6.93;1.70;;;;;;;6.80;100.00;99900.88;5074570;28;20435;-38
2023/01/15 01:18:20;;;;;;;8.48;2.13;;;;;;;6.76;100.00;99894.31;5075018;28;20032;-38
2023/01/15 01:20:46;;;;;;;8.63;2.40;;;;;;;6.70;100.00;99887.97;5074372;28;20054;-38
2023/01/15 01:23:11;;;;;;;6.57;1.80;;;;;;;6.74;100.00;99891.03;5074456;28;20468;-38
2023/01/15 01:25:36;;;;;;;10.50;2.83;;;;;;;6.73;100.00;99898.25;5074589;28;20085;-38
2023/01/15 01:28:02;;;;;;;7.50;2.37;;;;;;;6.71;100.00;99897.69;5074587;28;20024;-38
2023/01/15 01:30:27;;;;;;;8.95;2.40;;;;;;;6.69;100.00;99897.91;5074513;28;20028;-38
2023/01/15 01:32:52;;;;;;;8.07;2.17;;;;;;;6.68;100.00;99895.44;5074761;28;20363;-38
2023/01/15 01:35:18;;;;;;;4.77;1.63;;;;;;;6.67;100.00;99899.19;5074563;28;20449;-38
2023/01/15 01:37:48;;;;;;;7.07;2.13;;;;;;;6.67;100.00;99886.56;5074423;28;20540;-37
2023/01/15 01:40:13;;;;;;;7.40;1.70;;;;;;;6.60;100.00;99885.03;5074332;28;20082;-37
2023/01/15 01:42:39;;;;;;;7.67;1.93;;;;;;;6.67;100.00;99902.69;5074308;28;20064;-37
2023/01/15 01:45:26;;;;;;;9.33;2.10;;;;;;;6.66;100.00;99892.97;5074750;28;20460;-37
2023/01/15 01:48:03;;;;;;;9.57;2.25;;;;;;;6.56;100.00;99890.03;5074662;28;20059;-37
2023/01/15 01:50:31;;;;;;;8.77;1.73;;;;;;;6.58;100.00;99901.34;5074135;28;20039;-37
2023/01/15 01:53:07;;;;;;;8.10;1.48;;;;;;;6.58;100.00;99895.16;5074619;28;20029;-37
2023/01/15 01:55:34;;;;;;;7.22;1.80;;;;;;;6.58;100.00;99887.91;5074287;28;20093;-37
2023/01/15 01:58:02;;;;;;;10.18;1.90;;;;;;;6.58;100.00;99893.28;5073734;28;20488;-37
2023/01/15 02:00:30;;;;;;;8.63;1.80;;;;;;;6.56;100.00;99894.59;5074199;28;20036;-37
2023/01/15 02:02:56;;;;;;;8.05;1.73;;;;;;;6.57;100.00;99902.41;5073645;28;20036;-37
2023/01/15 02:05:34;;;;;;;7.65;1.70;;;;;;;6.57;100.00;99899.72;5074515;28;20028;-37
2023/01/15 02:08:00;;;;;;;5.97;1.52;;;;;;;6.58;100.00;99909.41;5073772;28;20103;-37
2023/01/15 02:10:26;;;;;;;6.97;1.83;;;;;;;6.54;100.00;99897.50;5073897;28;20025;-37
2023/01/15 02:12:56;;;;;;;;;;;;;;;6.61;100.00;99908.16;5074171;28;20032;-37
2023/01/15 02:15:29;;;;;;;4.65;1.27;;;;;;;6.55;100.00;99899.13;5073940;28;19949;-37
2023/01/15 02:17:54;;;;;;;9.80;1.75;;;;;;;6.56;100.00;99902.66;5073714;28;20085;-37
2023/01/15 02:20:22;;;;;;;7.67;1.77;;;;;;;6.53;100.00;99897.72;5073689;28;20424;-37
2023/01/15 02:23:15;;;;;;;7.88;1.88;;;;;;;6.50;100.00;99893.63;5073255;28;20096;-37
2023/01/15 02:26:05;;;;;;;5.25;1.75;;;;;;;6.50;100.00;99884.75;5074155;28;20035;-37
2023/01/15 02:28:36;;;;;;;5.40;1.88;;;;;;;6.48;100.00;99894.91;5073603;28;20096;-37
2023/01/15 02:31:14;;;;;;;7.95;1.50;;;;;;;6.49;100.00;99883.09;5073882;28;20025;-37
2023/01/15 02:33:54;;;;;;;6.07;1.88;;;;;;;6.41;100.00;99877.00;5073963;28;20100;-37
2023/01/15 02:36:23;;;;;;;7.78;1.70;;;;;;;6.44;100.00;99883.78;5073553;28;20024;-37
2023/01/15 02:38:52;;;;;;;9.10;2.60;;;;;;;6.39;100.00;99875.59;5074273;28;20036;-37
2023/01/15 02:41:23;;;;;;;10.18;2.40;;;;;;;6.38;100.00;99873.94;5073469;28;20024;-37
2023/01/15 02:43:52;;;;;;;6.55;1.77;;;;;;;6.36;100.00;99881.44;5073198;28;20111;-37
2023/01/15 02:46:22;;;;;;;6.55;1.55;;;;;;;6.30;100.00;99875.09;5073114;28;20028;-37
2023/01/15 02:48:52;;;;;;;4.95;1.90;;;;;;;6.32;100.00;99881.06;5073992;28;20066;-37
2023/01/15 02:51:23;;;;;;;7.22;1.80;;;;;;;6.33;100.00;99879.19;5073303;28;20021;-37
2023/01/15 02:53:52;;;;;;;7.22;2.33;;;;;;;6.31;100.00;99876.72;5073088;28;20056;-37
2023/01/15 02:56:22;;;;;;;8.48;1.80;;;;;;;6.31;100.00;99874.06;5073224;28;20103;-37
2023/01/15 02:58:52;;;;;;;7.88;2.15;;;;;;;6.23;100.00;99868.97;5074159;28;20029;-37
2023/01/15 03:01:22;;;;;;;8.10;1.73;;;;;;;6.31;100.00;99883.97;5073770;28;20086;-37
2023/01/15 03:04:09;;;;;;;6.10;1.65;;;;;;;6.31;100.00;99876.72;5073030;28;20473;-37
2023/01/15 03:06:42;;;;;;;7.97;1.67;;;;;;;6.22;100.00;99871.91;5076004;28;20038;-37
2023/01/15 03:09:08;;;;;;;8.00;1.88;;;;;;;6.22;100.00;99872.72;5077477;28;20109;-37
2023/01/15 03:11:41;;;;;;;6.32;1.60;;;;;;;6.26;100.00;99884.66;5077119;28;20507;-37
2023/01/15 03:14:25;;;;;;;6.97;1.88;;;;;;;6.26;100.00;99890.03;5077367;28;20028;-37
2023/01/15 03:17:04;;;;;;;8.13;1.75;;;;;;;6.22;100.00;99886.13;5077406;28;20052;-37
2023/01/15 03:19:46;;;;;;;6.05;1.92;;;;;;;6.14;100.00;99875.69;5077287;28;20024;-37
2023/01/15 03:22:20;;;;;;;6.60;1.70;;;;;;;6.13;100.00;99879.44;5077030;28;20025;-37
2023/01/15 03:24:56;;;;;;;9.18;1.70;;;;;;;6.13;100.00;99874.06;5077197;28;20036;-37
2023/01/15 03:27:22;;;;;;;9.43;2.00;;;;;;;6.18;100.00;99877.72;5077053;28;20024;-37
2023/01/15 03:29:52;;;;;;;9.05;2.13;;;;;;;6.19;100.00;99867.78;5076701;28;20090;-37
2023/01/15 03:32:19;;;;;;;9.23;2.75;;;;;;;6.11;100.00;99863.56;5077234;28;20086;-37
2023/01/15 03:34:50;;;;;;;;;;;;;;;6.18;100.00;99869.66;5077273;28;20376;-37
2023/01/15 03:37:16;;;;;;;10.73;2.20;;;;;;;6.08;100.00;99855.94;5076584;28;19944;-38
2023/01/15 03:39:42;;;;;;;6.75;1.65;;;;;;;6.05;100.00;99852.88;5076601;28;20089;-38
2023/01/15 03:42:42;;;;;;;8.50;1.92;;;;;;;6.11;100.00;99863.56;5076466;28;20032;-38
2023/01/15 03:45:16;;;;;;;6.18;1.50;;;;;;;6.11;100.00;99870.81;5076427;28;20492;-38
2023/01/15 03:47:41;;;;;;;5.38;1.60;;;;;;;6.11;100.00;99879.66;5076408;28;20358;-38
2023/01/15 03:50:21;;;;;;;7.33;1.70;;;;;;;6.12;100.00;99869.75;5076470;28;20042;-37
2023/01/15 03:52:46;;;;;;;7.20;1.63;;;;;;;6.13;100.00;99868.69;5076061;28;20534;-37
2023/01/15 03:55:18;;;;;;;6.30;1.47;;;;;;;6.11;100.00;99865.44;5077085;28;20052;-38
2023/01/15 03:57:55;;;;;;;8.23;2.00;;;;;;;6.10;99.68;99872.66;5076852;28;20369;-38
2023/01/15 04:00:32;;;;;;;10.02;2.00;;;;;;;6.09;100.00;99860.28;5076550;28;20082;-37
2023/01/15 04:03:00;;;;;;;6.72;1.58;;;;;;;6.00;99.93;99850.88;5076220;28;20039;-38
2023/01/15 04:05:27;;;;;;;5.88;1.83;;;;;;;6.03;99.68;99863.03;5076416;28;20376;-38
2023/01/15 04:07:55;;;;;;;8.63;2.20;;;;;;;6.02;100.00;99856.03;5075842;28;20025;-38
2023/01/15 04:10:20;;;;;;;7.85;1.70;;;;;;;6.03;100.00;99857.69;5075870;28;20051;-38
2023/01/15 04:12:46;;;;;;;9.00;2.63;;;;;;;6.04;100.00;99867.38;5076043;28;20025;-38
2023/01/15 04:15:11;;;;;;;8.68;2.25;;;;;;;6.03;99.57;99857.69;5076753;28;20353;-38
2023/01/15 04:17:37;;;;;;;5.93;1.67;;;;;;;6.00;99.86;99864.31;5075608;28;20025;-37
2023/01/15 04:20:03;;;;;;;11.82;1.60;;;;;;;6.00;99.28;99869.66;5076849;28;20029;-37
2023/01/15 04:22:29;;;;;;;;;;;;;;;6.02;99.89;99861.41;5075968;28;20031;-38
2023/01/15 04:24:55;;;;;;;7.07;1.50;;;;;;;5.98;100.00;99857.53;5075779;28;20352;-38
2023/01/15 04:27:20;;;;;;;7.85;1.80;;;;;;;5.91;100.00;99852.22;5076568;28;20036;-38
2023/01/15 04:29:46;;;;;;;6.27;1.57;;;;;;;5.95;100.00;99866.84;5076290;28;20126;-38
2023/01/15 04:32:11;;;;;;;6.53;1.83;;;;;;;5.90;100.00;99859.47;5075996;28;20028;-37
2023/01/15 04:34:36;;;;;;;9.87;1.73;;;;;;;5.83;100.00;99863.25;5076373;28;20046;-38
2023/01/15 04:37:02;;;;;;;8.13;1.73;;;;;;;5.87;99.79;99867.13;5075324;28;20465;-38
2023/01/15 04:39:27;;;;;;;6.00;1.73;;;;;;;5.85;100.00;99867.34;5075345;28;20083;-38
2023/01/15 04:44:37;;;;;;;7.40;2.05;;;;;;;5.84;100.00;99865.69;5075522;28;20565;-38
2023/01/15 04:47:03;;;;;;;8.00;1.85;;;;;;;5.83;100.00;99877.47;5075360;28;20060;-38
2023/01/15 04:49:29;;;;;;;9.83;2.43;;;;;;;5.78;99.78;99873.84;5075108;28;20056;-37
2023/01/15 04:51:54;;;;;;;9.20;2.03;;;;;;;5.73;99.89;99881.72;5075011;28;20279;-36
2023/01/15 04:54:21;;;;;;;9.17;2.47;;;;;;;5.77;99.94;99882.94;5075009;28;20058;-36
2023/01/15 04:56:49;;;;;;;8.25;1.73;;;;;;;5.77;99.12;99880.25;5075794;28;20033;-37
2023/01/15 04:59:16;;;;;;;8.23;2.65;;;;;;;5.75;100.00;99888.50;5075962;28;20020;-37
2023/01/15 05:01:41;;;;;;;8.38;1.77;;;;;;;5.66;100.00;99874.59;5075076;28;20453;-38
2023/01/15 05:04:07;;;;;;;7.67;1.80;;;;;;;5.72;100.00;99878.22;5075401;28;20063;-38
2023/01/15 05:06:33;;;;;;;5.95;1.73;;;;;;;5.68;100.00;99882.41;5075345;28;20024;-37
2023/01/15 05:08:59;;;;;;;7.47;1.60;;;;;;;5.70;100.00;99891.03;5075353;28;20055;-38
2023/01/15 05:11:25;;;;;;;8.65;1.77;;;;;;;5.69;100.00;99892.91;5075175;28;20027;-38
2023/01/15 05:13:50;;;;;;;9.95;2.88;;;;;;;5.68;100.00;99890.44;5075033;28;20479;-38
2023/01/15 05:16:18;;;;;;;8.17;2.20;;;;;;;5.71;100.00;99892.69;5075391;28;20035;-38
2023/01/15 05:18:45;;;;;;;8.25;1.80;;;;;;;5.63;100.00;99885.75;5075070;28;20032;-38
2023/01/15 05:21:31;;;;;;;7.85;2.03;;;;;;;5.68;100.00;99887.75;5074957;28;20476;-38
2023/01/15 05:23:59;;;;;;;9.40;2.37;;;;;;;5.69;100.00;99889.41;5075002;28;20537;-37
2023/01/15 05:26:24;;;;;;;5.53;1.50;;;;;;;5.71;100.00;99887.31;5074601;28;20483;-38
2023/01/15 05:28:53;;;;;;;8.50;1.75;;;;;;;5.71;100.00;99871.22;5073610;28;20020;-37
2023/01/15 05:31:18;;;;;;;8.95;1.80;;;;;;;5.68;100.00;99868.97;5075311;28;20112;-37
2023/01/15 05:33:45;;;;;;;7.73;2.23;;;;;;;5.64;100.00;99860.56;5074416;28;20178;-38
2023/01/15 05:36:13;;;;;;;7.70;1.80;;;;;;;5.68;100.00;99867.13;5074631;28;20040;-37
2023/01/15 05:38:39;;;;;;;7.85;1.80;;;;;;;5.68;99.58;99869.81;5075233;28;20028;-37
2023/01/15 05:41:47;;;;;;;7.88;2.17;;;;;;;5.66;100.00;99863.00;5075112;28;20024;-37
2023/01/15 05:43:52;;;;;;;;;;;;;;;5.67;99.22;99870.03;5074386;28;20037;-37
2023/01/15 05:46:17;;;;;;;10.02;1.67;;;;;;;5.64;99.01;99873.97;5073947;28;19908;-38
2023/01/15 05:48:42;;;;;;;7.13;1.50;;;;;;;5.56;99.73;99860.00;5074519;28;20033;-37
2023/01/15 05:51:08;;;;;;;9.13;1.97;;;;;;;5.59;100.00;99867.63;5074421;28;20032;-37
2023/01/15 05:53:33;;;;;;;8.43;1.97;;;;;;;5.51;100.00;99859.88;5074386;28;20033;-37
2023/01/15 05:56:03;;;;;;;5.70;1.80;;;;;;;5.63;98.95;99869.66;5074531;28;20110;-38
2023/01/15 05:58:28;;;;;;;11.85;2.47;;;;;;;5.55;98.77;99859.19;5074261;28;20075;-38
2023/01/15 06:00:54;;;;;;;7.00;2.03;;;;;;;5.62;98.80;99877.94;5073981;28;20021;-37
2023/01/15 06:03:24;;;;;;;8.40;1.88;;;;;;;5.60;99.69;99869.25;5073927;28;20036;-37
2023/01/15 06:05:53;;;;;;;10.65;2.00;;;;;;;5.64;100.00;99871.28;5073613;28;20025;-37
2023/01/15 06:08:19;;;;;;;10.77;2.00;;;;;;;5.63;100.00;99876.88;5073896;28;20064;-38
2023/01/15 06:10:45;;;;;;;6.65;1.90;;;;;;;5.63;100.00;99880.38;5074082;28;20032;-38
2023/01/15 06:13:11;;;;;;;9.23;1.58;;;;;;;5.49;100.00;99862.78;5073553;28;20552;-38
2023/01/15 06:15:36;;;;;;;11.02;2.17;;;;;;;5.41;100.00;99855.81;5073768;28;20043;-38
2023/01/15 06:18:01;;;;;;;9.93;2.93;;;;;;;5.40;100.00;99877.50;5074342;28;20021;-37
2023/01/15 06:20:28;;;;;;;10.77;2.20;;;;;;;5.39;100.00;99874.00;5073661;28;20465;-37
2023/01/15 06:22:53;;;;;;;9.57;2.38;;;;;;;5.26;100.00;99878.66;5074267;28;20040;-37
2023/01/15 06:25:18;;;;;;;8.30;1.53;;;;;;;5.20;100.00;99875.00;5073714;28;20021;-37
2023/01/15 06:27:44;;;;;;;5.40;2.03;;;;;;;5.26;100.00;99882.16;5073417;28;20029;-38
2023/01/15 06:30:10;;;;;;;8.37;2.17;;;;;;;5.28;100.00;99892.69;5073687;28;20021;-38
2023/01/15 06:32:36;;;;;;;14.38;3.17;;;;;;;5.28;100.00;99900.72;5074147;28;20078;-38
2023/01/15 06:35:01;;;;;;;7.68;1.63;;;;;;;5.23;100.00;99882.63;5073541;28;20456;-37
2023/01/15 06:37:27;;;;;;;10.03;2.33;;;;;;;5.25;100.00;99896.59;5074026;28;20028;-37
2023/01/15 06:39:52;;;;;;;8.77;2.07;;;;;;;5.22;100.00;99878.31;5073770;28;20021;-37
2023/01/15 06:47:46;;;;;;;11.05;2.00;;;;;;;5.15;100.00;99888.25;5073490;28;20494;-37
2023/01/15 06:50:12;;;;;;;4.57;1.50;;;;;;;5.23;100.00;99892.53;5073476;28;20031;-38
2023/01/15 06:52:38;;;;;;;10.60;2.38;;;;;;;5.23;100.00;99890.66;5073874;28;20021;-37
2023/01/15 06:55:03;;;;;;;9.90;1.75;;;;;;;5.22;100.00;99886.34;5073621;28;20052;-37
2023/01/15 06:57:29;;;;;;;8.55;2.13;;;;;;;5.21;100.00;99890.03;5073363;28;20032;-37
2023/01/15 06:59:54;;;;;;;7.53;1.77;;;;;;;5.22;100.00;99889.03;5073843;28;20028;-37
2023/01/15 07:02:20;;;;;;;10.55;1.80;;;;;;;5.20;100.00;99885.72;5073274;28;20025;-37
2023/01/15 07:04:46;;;;;;;9.32;2.20;;;;;;;5.18;100.00;99906.59;5073815;28;20028;-37
2023/01/15 07:07:12;;;;;;;;;;;;;;;5.20;100.00;99909.84;5073340;28;20404;-37
2023/01/15 07:09:37;;;;;;;14.00;2.78;;;;;;;5.08;100.00;99901.72;5073814;28;19912;-38
2023/01/15 07:12:03;;;;;;;17.17;2.10;;;;;;;5.16;100.00;99922.84;5072951;28;20036;-38
2023/01/15 07:14:28;;;;;;;7.27;1.77;;;;;;;5.13;100.00;99914.44;5073164;28;20036;-38
2023/01/15 07:16:54;;;;;;;6.67;1.83;;;;;;;5.10;100.00;99920.25;5073192;28;20098;-38
2023/01/15 07:19:20;;;;;;;6.45;1.55;;;;;;;5.01;100.00;99914.31;5073129;28;20024;-37
2023/01/15 07:21:46;;;;;;;7.15;1.75;;;;;;;5.11;100.00;99929.91;5072746;28;20029;-37
2023/01/15 07:24:12;;;;;;;8.10;1.70;;;;;;;5.04;100.00;99913.91;5073176;28;20059;-37
2023/01/15 07:26:38;;;;;;;10.85;1.80;;;;;;;5.08;100.00;99925.81;5073298;28;20103;-37
2023/01/15 07:29:04;;;;;;;7.90;1.85;;;;;;;5.06;100.00;99933.25;5073858;28;20060;-37
2023/01/15 07:31:30;;;;;;;;;;;;;;;5.09;100.00;99929.31;5073167;28;20032;-37
2023/01/15 07:33:56;;;;;;;8.20;1.60;;;;;;;5.06;100.00;99927.06;5072912;28;19915;-37
2023/01/15 07:36:21;;;;;;;7.43;1.77;;;;;;;5.06;100.00;99927.06;5072714;28;20032;-37
2023/01/15 07:38:46;;;;;;;9.93;1.83;;;;;;;5.05;100.00;99930.78;5073750;28;20025;-37
2023/01/15 07:52:08;;;;;;;6.50;1.63;;;;;;;4.93;100.00;99929.81;5074213;28;20083;-37
2023/01/15 07:54:33;;;;;;;5.87;1.37;;;;;;;4.96;100.00;99946.31;5076896;28;20468;-37
2023/01/15 07:56:58;;;;;;;10.63;2.00;;;;;;;4.96;100.00;99934.75;5076913;28;20024;-37
2023/01/15 07:59:24;;;;;;;6.63;1.33;;;;;;;4.96;100.00;99937.44;5076668;28;20048;-37
2023/01/15 08:01:50;;;;;;;6.88;1.83;;;;;;;4.94;100.00;99942.22;5076228;28;20025;-37
2023/01/15 08:04:15;;;;;;;6.03;2.03;;;;;;;4.93;100.00;99944.06;5076550;28;20032;-37
2023/01/15 08:06:40;;;;;;;7.93;2.00;;;;;;;4.88;100.00;99936.69;5076144;28;20321;-37
2023/01/15 08:09:06;;;;;;;4.97;1.63;;;;;;;4.91;100.00;99941.59;5076749;28;20350;-37
2023/01/15 08:17:00;;;;;;;6.00;1.40;;;;;;;4.91;100.00;99946.94;5076073;28;20491;-37
2023/01/15 08:19:28;;;;;;;5.10;1.60;;;;;;;4.87;100.00;99950.25;5076758;28;20028;-37
2023/01/15 08:21:54;;;;;;;5.82;1.48;;;;;;;4.93;100.00;99959.28;5076645;28;20033;-38
2023/01/15 08:24:19;;;;;;;6.15;2.00;;;;;;;4.91;100.00;99957.66;5076516;28;20082;-37
2023/01/15 08:26:44;;;;;;;7.53;1.60;;;;;;;4.86;100.00;99960.16;5076368;28;20024;-38
2023/01/15 08:29:10;;;;;;;7.80;1.63;;;;;;;4.95;100.00;99965.28;5075806;28;20032;-38
2023/01/15 08:31:35;;;;;;;8.57;2.27;;;;;;;4.96;100.00;99964.22;5075494;28;20033;-37
2023/01/15 08:34:01;;;;;;;3.92;1.25;;;;;;;4.98;100.00;99954.97;5075588;28;20024;-37
2023/01/15 08:36:27;;;;;;;6.45;1.92;;;;;;;5.00;100.00;99962.78;5075323;28;20033;-37
2023/01/15 08:38:52;;;;;;;7.90;1.53;;;;;;;4.96;100.00;99945.47;5076463;28;20161;-37
2023/01/15 08:41:17;;;;;;;4.63;1.60;;;;;;;5.03;100.00;99957.81;5075570;28;20040;-37
2023/01/15 08:43:44;;;;;;;6.03;1.33;;;;;;;5.06;100.00;99952.00;5075555;28;20036;-37
2023/01/15 08:46:10;;;;;;;13.98;2.03;;;;;;;5.05;100.00;99942.31;5075663;28;20028;-37
2023/01/15 08:48:35;;;;;;;5.13;1.40;;;;;;;5.09;100.00;99946.22;5075159;28;20511;-37
2023/01/15 08:51:05;;;;;;;11.25;1.77;;;;;;;5.08;100.00;99946.44;5075435;28;20117;-37
2023/01/15 08:53:30;;;;;;;6.25;1.50;;;;;;;5.14;100.00;99941.03;5075101;28;20028;-37
2023/01/15 08:55:56;;;;;;;5.97;1.70;;;;;;;5.13;100.00;99934.03;5075997;28;20056;-37
2023/01/15 08:58:21;;;;;;;4.93;1.80;;;;;;;5.13;100.00;99927.84;5075841;28;20026;-37
2023/01/15 09:00:47;;;;;;;8.10;1.87;;;;;;;5.21;99.65;99949.00;5075753;28;20511;-37
2023/01/15 09:03:13;;;;;;;5.72;1.35;;;;;;;5.18;99.63;99941.41;5074311;28;20020;-37
2023/01/15 09:05:39;;;;;;;;;;;;;;;5.24;100.00;99945.09;5075497;28;20063;-38
2023/01/15 09:08:05;;;;;;;9.43;2.00;;;;;;;5.25;100.00;99930.63;5074822;28;20364;-38
2023/01/15 09:10:31;;;;;;;11.57;1.95;;;;;;;5.28;100.00;99941.75;5074834;28;20526;-38
2023/01/15 09:12:59;;;;;;;6.63;1.67;;;;;;;5.31;100.00;99935.13;5074786;28;20032;-37
2023/01/15 09:15:24;;;;;;;3.25;1.13;;;;;;;5.37;98.68;99945.81;5074742;28;20469;-37
2023/01/15 09:17:49;;;;;;;5.40;1.57;;;;;;;5.40;98.76;99936.50;5074954;28;20118;-37
2023/01/15 09:20:15;;;;;;;7.37;1.60;;;;;;;5.38;97.98;99917.94;5075104;28;20074;-37
2023/01/15 09:22:40;;;;;;;9.07;1.77;;;;;;;5.52;97.79;99941.97;5074271;28;20033;-38
2023/01/15 09:25:06;;;;;;;9.40;2.37;;;;;;;5.53;98.74;99944.44;5074805;28;20262;-37
2023/01/15 09:27:33;;;;;;;7.93;1.60;;;;;;;5.44;98.46;99926.97;5074160;28;20774;-37
2023/01/15 09:29:58;;;;;;;;;;;;;;;5.69;97.57;99951.09;5074990;28;20359;-38
2023/01/15 09:32:24;;;;;;;5.50;1.63;;;;;;;5.73;98.43;99949.59;5074809;28;19957;-38
2023/01/15 09:34:49;;;;;;;8.05;1.88;;;;;;;5.78;96.20;99936.34;5075331;28;20032;-37
2023/01/15 09:37:15;;;;;;;7.50;1.80;;;;;;;5.91;96.35;99935.41;5074473;28;20025;-37
2023/01/15 09:39:40;;;;;;;9.30;1.80;;;;;;;5.94;96.42;99934.97;5074454;28;20033;-37
2023/01/15 09:42:09;;;;;;;5.20;1.23;;;;;;;6.00;96.40;99952.03;5074204;28;20426;-38
2023/01/15 09:45:03;;;;;;;7.55;2.03;;;;;;;5.72;96.12;99912.28;5056990;28;20373;-38
2023/01/15 09:47:31;;;;;;;6.40;1.88;;;;;;;5.83;97.11;99938.38;5074310;28;20029;-37
2023/01/15 09:49:57;;;;;;;7.32;2.03;;;;;;;5.71;97.99;99935.63;5074333;28;20032;-37
2023/01/15 09:52:32;;;;;;;11.63;3.20;;;;;;;5.68;97.74;99942.22;5073677;28;20093;-37
2023/01/15 09:55:14;;;;;;;7.63;2.38;;;;;;;5.61;98.03;99936.13;5073820;28;20055;-37
2023/01/15 09:57:40;;;;;;;12.65;2.65;;;;;;;5.72;97.97;99931.06;5073630;28;20024;-37
2023/01/15 10:00:16;;;;;;;7.38;1.90;;;;;;;5.83;96.77;99944.56;5074208;28;20047;-37
2023/01/15 10:02:50;;;;;;;9.75;2.38;;;;;;;5.87;95.46;99940.41;5073665;28;20477;-37
2023/01/15 10:05:31;;;;;;;6.07;1.40;;;;;;;6.08;94.28;99962.50;5074498;28;20040;-37
2023/01/15 10:08:15;;;;;;;5.30;1.25;;;;;;;6.22;93.59;99974.75;5074097;28;20051;-37
2023/01/15 10:10:44;;;;;;;10.73;1.73;;;;;;;6.32;94.07;99966.97;5074727;28;20410;-37
2023/01/15 10:13:27;;;;;;;7.00;1.75;;;;;;;6.39;92.86;99954.31;5073792;28;20116;-37
2023/01/15 10:15:53;;;;;;;7.85;1.63;;;;;;;6.34;92.60;99954.13;5073164;28;20027;-38
2023/01/15 10:18:21;;;;;;;5.80;1.52;;;;;;;6.38;92.21;99952.66;5073992;28;20029;-37
2023/01/15 10:20:59;;;;;;;7.55;1.92;;;;;;;6.38;92.68;99959.88;5074045;28;20464;-38
2023/01/15 10:23:27;;;;;;;10.82;2.15;;;;;;;6.34;91.54;99956.00;5074234;28;20064;-37
2023/01/15 10:26:07;;;;;;;5.88;1.80;;;;;;;6.37;91.56;99944.81;5073699;28;20127;-37
2023/01/15 10:28:51;;;;;;;5.50;1.63;;;;;;;6.29;91.33;99945.94;5074038;28;20099;-37
2023/01/15 10:31:20;;;;;;;6.32;1.55;;;;;;;6.35;91.45;99953.13;5073434;28;20031;-37
2023/01/15 10:33:46;;;;;;;6.50;1.65;;;;;;;6.39;91.83;99953.47;5073820;28;20020;-37
2023/01/15 10:36:30;;;;;;;7.30;1.70;;;;;;;6.34;92.62;99950.63;5074393;28;20353;-37
2023/01/15 10:39:09;;;;;;;9.43;1.85;;;;;;;6.43;92.67;99951.97;5073358;28;20020;-37
2023/01/15 10:41:53;;;;;;;8.57;1.88;;;;;;;6.44;93.35;99953.59;5073825;28;20032;-38
2023/01/15 10:44:27;;;;;;;10.05;1.85;;;;;;;6.44;92.18;99967.88;5073844;28;20456;-38
2023/01/15 10:46:57;;;;;;;6.32;1.60;;;;;;;6.36;93.15;99957.44;5073739;28;20044;-37
2023/01/15 10:49:27;;;;;;;12.45;2.38;;;;;;;6.36;93.90;99968.19;5073801;28;20046;-38
2023/01/15 10:52:25;;;;;;;7.47;2.30;;;;;;;6.48;94.25;99980.84;5073063;28;20039;-38
2023/01/15 10:55:05;;;;;;;7.72;1.65;;;;;;;6.44;91.26;99940.19;5065962;28;20055;-37
2023/01/15 10:57:39;;;;;;;8.98;1.65;;;;;;;6.40;93.43;99966.69;5073379;28;20033;-36
2023/01/15 11:00:06;;;;;;;7.25;1.70;;;;;;;6.48;92.86;99957.47;5073114;28;20488;-36
2023/01/15 11:02:35;;;;;;;;;;;;;;;6.51;93.10;99957.03;5073687;28;20025;-37
2023/01/15 11:05:02;;;;;;;6.53;1.42;;;;;;;6.49;92.33;99969.88;5073298;28;19908;-37
2023/01/15 11:07:41;;;;;;;9.75;1.65;;;;;;;6.48;93.21;99962.03;5072893;28;20512;-37
2023/01/15 11:10:14;;;;;;;7.82;1.90;;;;;;;6.45;93.80;99976.75;5072928;28;20111;-37
2023/01/15 11:21:24;;;;;;;5.18;1.30;;;;;;;6.53;91.90;99963.00;5073757;28;20531;-37
2023/01/15 11:23:51;;;;;;;10.27;2.47;;;;;;;6.53;92.09;99976.44;5072850;28;20167;-37
2023/01/15 11:26:21;;;;;;;5.40;1.38;;;;;;;6.42;92.28;99964.59;5072826;28;20025;-37
2023/01/15 11:28:47;;;;;;;7.93;1.60;;;;;;;6.44;91.28;99975.94;5077083;28;20115;-37
2023/01/15 11:31:13;;;;;;;;;;;;;;;6.48;91.92;99975.47;5076984;28;20033;-37
2023/01/15 11:33:39;;;;;;;4.75;1.10;;;;;;;6.37;92.63;99967.13;5076888;28;19914;-37
2023/01/15 11:36:22;;;;;;;6.00;1.27;;;;;;;6.37;93.21;99972.50;5077296;28;20407;-37
2023/01/15 11:38:49;;;;;;;4.88;1.00;;;;;;;6.40;92.92;99971.25;5076755;28;20380;-37
2023/01/15 11:52:46;;;;;;;5.47;1.60;;;;;;;6.35;92.70;99966.53;5077069;28;20047;-38
2023/01/15 11:55:16;;;;;;;5.95;2.10;;;;;;;6.42;92.98;99963.75;5076296;28;20052;-38
2023/01/15 11:57:41;;;;;;;4.85;1.10;;;;;;;6.48;94.46;99970.09;5076446;28;20060;-37
2023/01/15 12:00:24;;;;;;;7.90;1.00;;;;;;;6.48;93.69;99976.28;5076395;28;20070;-37
2023/01/15 12:02:55;;;;;;;4.95;1.30;;;;;;;6.39;94.07;99997.28;5076540;28;20275;-37
2023/01/15 12:05:24;;;;;;;5.50;1.48;;;;;;;6.30;97.11;99981.69;5076236;28;20032;-38
2023/01/15 12:07:53;;;;;;;6.70;1.15;;;;;;;6.14;99.26;99973.16;5075385;28;20044;-37
2023/01/15 12:13:43;;;;;;;5.05;1.48;;;;;;;6.11;100.00;99975.50;5076113;28;20445;-37
2023/01/15 12:16:21;;;;;;;4.57;1.30;;;;;;;6.09;100.00;99980.25;5076547;28;20077;-37
2023/01/15 12:18:52;;;;;;;7.93;1.38;;;;;;;5.90;100.00;99934.59;5058882;28;20368;-37
2023/01/15 12:21:36;;;;;;;7.03;1.10;;;;;;;6.00;100.00;99963.59;5076557;28;20025;-37
2023/01/15 12:24:04;;;;;;;3.63;1.00;;;;;;;5.96;100.00;99959.75;5076286;28;20029;-37
2023/01/15 12:26:40;;;;;;;8.00;1.88;;;;;;;6.00;100.00;99963.59;5076115;28;20032;-38
2023/01/15 12:29:08;;;;;;;3.37;0.80;;;;;;;5.90;100.00;99945.31;5075587;28;20540;-37
2023/01/15 12:31:34;;;;;;;5.25;1.27;;;;;;;5.94;100.00;99945.72;5075799;28;20271;-38
2023/01/15 12:34:11;;;;;;;6.13;1.20;;;;;;;5.93;100.00;99952.13;5076614;28;20523;-38
2023/01/15 12:36:50;;;;;;;4.22;0.95;;;;;;;5.94;99.12;99956.44;5076273;28;20029;-38